createdAt,value
2018-04-30T00:00:27.320Z,10.13
2018-04-30T00:02:54.670Z,7.13
2018-04-30T00:05:22.805Z,6.43
2018-04-30T00:07:51.179Z,8.47
2018-04-30T00:10:19.341Z,6.53
2018-04-30T00:12:47.765Z,8.13
2018-04-30T00:15:16.066Z,7.90
2018-04-30T00:17:43.454Z,5.33
2018-04-30T00:20:10.854Z,7.63
2018-04-30T00:22:38.993Z,6.50
2018-04-30T00:25:07.313Z,7.70
2018-04-30T00:27:38.103Z,5.27
2018-04-30T00:30:05.533Z,7.17
2018-04-30T00:32:33.016Z,3.83
2018-04-30T00:35:01.237Z,11.47
2018-04-30T00:37:28.682Z,5.23
2018-04-30T00:39:57.038Z,5.20
2018-04-30T00:42:25.333Z,3.80
2018-04-30T00:44:53.406Z,5.53
2018-04-30T00:47:21.667Z,3.90
2018-04-30T00:49:49.311Z,4.60
2018-04-30T00:52:17.661Z,5.37
2018-04-30T00:54:52.122Z,6.57
2018-04-30T00:57:20.904Z,4.33
2018-04-30T00:59:49.208Z,4.27
2018-04-30T01:02:17.438Z,3.30
2018-04-30T01:04:44.890Z,3.63
2018-04-30T01:07:13.097Z,5.30
2018-04-30T01:09:40.491Z,3.07
2018-04-30T01:12:08.706Z,3.53
2018-04-30T01:14:37.022Z,2.13
2018-04-30T01:17:04.456Z,2.87
2018-04-30T01:19:32.810Z,4.30
2018-04-30T01:22:00.966Z,1.97
2018-04-30T01:24:28.373Z,4.33
2018-04-30T01:26:56.483Z,1.87
2018-04-30T01:29:23.880Z,3.03
2018-04-30T01:31:51.996Z,2.40
2018-04-30T01:34:20.134Z,2.73
2018-04-30T01:36:47.567Z,1.60
2018-04-30T01:39:15.865Z,2.10
2018-04-30T01:41:43.293Z,1.30
2018-04-30T01:44:11.435Z,0.90
2018-04-30T01:46:38.811Z,2.17
2018-04-30T01:49:07.179Z,1.30
2018-04-30T01:51:35.733Z,2.20
2018-04-30T01:54:03.175Z,0.80
2018-04-30T01:56:30.590Z,1.87
2018-04-30T01:58:57.957Z,2.80
2018-04-30T02:01:25.435Z,2.37
2018-04-30T02:03:52.779Z,0.80
2018-04-30T02:06:21.075Z,0.90
2018-04-30T02:08:48.470Z,1.10
2018-04-30T02:11:15.895Z,3.23
2018-04-30T02:13:44.111Z,1.97
2018-04-30T02:16:11.570Z,1.60
2018-04-30T02:18:39.364Z,1.93
2018-04-30T02:21:06.821Z,2.20
2018-04-30T02:23:34.237Z,0.70
2018-04-30T02:26:01.595Z,1.33
2018-04-30T02:28:29.746Z,1.70
2018-04-30T02:30:57.251Z,1.83
2018-04-30T02:33:25.586Z,0.93
2018-04-30T02:35:52.981Z,0.90
2018-04-30T02:38:20.404Z,0.90
2018-04-30T02:40:47.855Z,0.97
2018-04-30T02:43:15.239Z,0.70
2018-04-30T02:45:43.583Z,1.40
2018-04-30T02:48:11.051Z,0.87
2018-04-30T02:50:39.359Z,1.47
2018-04-30T02:53:07.737Z,1.03
2018-04-30T02:55:35.124Z,1.33
2018-04-30T02:58:02.513Z,0.63
2018-04-30T03:00:30.651Z,1.23
2018-04-30T03:02:58.109Z,2.10
2018-04-30T03:05:26.506Z,2.10
2018-04-30T03:07:54.667Z,0.63
2018-04-30T03:10:22.991Z,1.10
2018-04-30T03:12:50.394Z,1.27
2018-04-30T03:15:17.876Z,0.93
2018-04-30T03:17:46.171Z,1.77
2018-04-30T03:20:14.872Z,56.60
2018-04-30T03:22:43.117Z,5.83
2018-04-30T03:25:11.647Z,0.80
2018-04-30T03:27:39.794Z,0.63
2018-04-30T03:30:07.981Z,0.77
2018-04-30T03:32:36.172Z,0.80
2018-04-30T03:35:04.499Z,3.10
2018-04-30T03:37:31.922Z,0.43
2018-04-30T03:39:59.308Z,0.80
2018-04-30T03:42:26.728Z,1.10
2018-04-30T03:44:54.885Z,2.83
2018-04-30T03:47:22.337Z,0.77
2018-04-30T03:49:50.491Z,1.03
2018-04-30T03:52:17.931Z,1.43
2018-04-30T03:54:45.520Z,1.40
2018-04-30T03:57:13.677Z,4.27
2018-04-30T03:59:42.043Z,1.53
2018-04-30T04:02:22.476Z,2.43
2018-04-30T04:05:02.044Z,1.50
2018-04-30T04:07:30.268Z,1.23
2018-04-30T04:09:57.707Z,2.30
2018-04-30T04:12:25.171Z,2.37
2018-04-30T04:14:52.595Z,2.23
2018-04-30T04:17:20.802Z,1.60
2018-04-30T04:19:49.047Z,1.58
2018-04-30T04:22:16.457Z,0.90
2018-04-30T04:24:44.601Z,1.23
2018-04-30T04:27:11.995Z,3.13
2018-04-30T04:29:39.367Z,1.08
2018-04-30T04:32:06.826Z,1.30
2018-04-30T04:34:35.307Z,0.73
2018-04-30T04:37:03.597Z,1.40
2018-04-30T04:39:31.045Z,1.30
2018-04-30T04:41:58.400Z,1.37
2018-04-30T04:44:26.556Z,1.87
2018-04-30T04:46:54.077Z,0.80
2018-04-30T04:49:21.499Z,1.00
2018-04-30T04:51:49.740Z,1.90
2018-04-30T04:54:17.226Z,2.53
2018-04-30T04:56:45.553Z,1.90
2018-04-30T04:59:13.099Z,0.73
2018-04-30T05:01:41.425Z,1.33
2018-04-30T05:04:08.826Z,1.27
2018-04-30T05:06:36.389Z,0.97
2018-04-30T05:09:04.529Z,1.90
2018-04-30T05:11:32.065Z,2.60
2018-04-30T05:13:59.858Z,1.33
2018-04-30T05:16:27.482Z,1.03
2018-04-30T05:18:54.970Z,2.40
2018-04-30T05:21:22.317Z,1.73
2018-04-30T05:23:50.507Z,1.57
2018-04-30T05:26:18.777Z,2.23
2018-04-30T05:28:46.965Z,0.90
2018-04-30T05:31:15.144Z,2.67
2018-04-30T05:33:42.613Z,1.60
2018-04-30T05:36:11.021Z,1.77
2018-04-30T05:38:38.485Z,1.17
2018-04-30T05:41:05.966Z,0.70
2018-04-30T05:43:34.287Z,1.63
2018-04-30T05:46:01.764Z,1.40
2018-04-30T05:48:30.045Z,0.87
2018-04-30T05:50:58.631Z,1.03
2018-04-30T05:53:26.071Z,1.13
2018-04-30T05:55:54.244Z,0.73
2018-04-30T05:58:21.764Z,0.80
2018-04-30T06:00:49.921Z,1.40
2018-04-30T06:03:17.449Z,1.40
2018-04-30T06:05:45.773Z,1.40
2018-04-30T06:08:13.920Z,1.83
2018-04-30T06:10:42.241Z,1.23
2018-04-30T06:13:09.637Z,3.50
2018-04-30T06:15:37.817Z,0.87
2018-04-30T06:18:05.261Z,1.00
2018-04-30T06:20:33.480Z,0.73
2018-04-30T06:23:01.705Z,0.80
2018-04-30T06:25:31.182Z,1.13
2018-04-30T06:27:58.538Z,0.70
2018-04-30T06:30:26.595Z,1.60
2018-04-30T06:32:53.996Z,0.80
2018-04-30T06:35:22.309Z,0.80
2018-04-30T06:37:50.588Z,3.27
2018-04-30T06:40:17.954Z,3.70
2018-04-30T06:42:46.175Z,1.20
2018-04-30T06:45:15.165Z,3.20
2018-04-30T06:47:43.297Z,0.77
2018-04-30T06:50:10.809Z,0.90
2018-04-30T06:52:38.164Z,0.60
2018-04-30T06:55:05.502Z,1.03
2018-04-30T06:57:33.618Z,1.90
2018-04-30T07:00:01.990Z,0.70
2018-04-30T07:02:29.289Z,1.83
2018-04-30T07:04:57.689Z,1.37
2018-04-30T07:07:25.148Z,0.50
2018-04-30T07:09:53.387Z,0.43
2018-04-30T07:12:20.806Z,0.50
2018-04-30T07:14:48.968Z,1.33
2018-04-30T07:17:16.232Z,1.67
2018-04-30T07:19:44.315Z,0.50
2018-04-30T07:22:12.618Z,1.37
2018-04-30T07:24:40.478Z,0.60
2018-04-30T07:27:08.988Z,1.60
2018-04-30T07:29:36.350Z,0.70
2018-04-30T07:32:04.392Z,0.70
2018-04-30T07:34:32.664Z,0.43
2018-04-30T07:37:00.846Z,0.93
2018-04-30T07:39:28.910Z,1.67
2018-04-30T07:41:56.302Z,4.70
2018-04-30T07:44:24.351Z,5.20
2018-04-30T07:46:52.638Z,1.43
2018-04-30T07:49:20.155Z,0.70
2018-04-30T07:51:48.147Z,2.10
2018-04-30T07:54:15.434Z,3.20
2018-04-30T07:56:42.711Z,0.67
2018-04-30T07:59:10.115Z,2.27
2018-04-30T08:01:37.450Z,0.67
2018-04-30T08:04:04.771Z,0.87
2018-04-30T08:06:33.082Z,1.17
2018-04-30T08:09:00.448Z,1.60
2018-04-30T08:11:28.724Z,0.60
2018-04-30T08:13:56.167Z,1.67
2018-04-30T08:16:23.524Z,0.80
2018-04-30T08:18:51.850Z,0.50
2018-04-30T08:21:19.221Z,0.83
2018-04-30T08:23:47.295Z,0.73
2018-04-30T08:26:15.355Z,0.80
2018-04-30T08:28:42.798Z,1.47
2018-04-30T08:31:10.218Z,1.30
2018-04-30T08:33:38.548Z,0.70
2018-04-30T08:36:05.940Z,0.57
2018-04-30T08:38:34.118Z,0.80
2018-04-30T08:41:01.453Z,2.10
2018-04-30T08:43:29.552Z,1.83
2018-04-30T08:45:56.854Z,4.83
2018-04-30T08:48:24.973Z,0.77
2018-04-30T08:50:53.050Z,0.70
2018-04-30T08:53:20.427Z,0.83
2018-04-30T08:55:47.800Z,1.40
2018-04-30T08:58:15.148Z,2.23
2018-04-30T09:00:42.553Z,1.80
2018-04-30T09:03:09.752Z,0.83
2018-04-30T09:05:37.199Z,2.00
2018-04-30T09:08:05.438Z,0.60
2018-04-30T09:10:32.786Z,1.93
2018-04-30T09:13:00.976Z,1.53
2018-04-30T09:15:28.343Z,1.43
2018-04-30T09:17:55.628Z,9.57
2018-04-30T09:20:23.660Z,6.53
2018-04-30T09:22:51.723Z,1.70
2018-04-30T09:25:19.121Z,2.33
2018-04-30T09:27:46.619Z,0.80
2018-04-30T09:30:14.880Z,0.80
2018-04-30T09:32:42.181Z,1.33
2018-04-30T09:35:09.556Z,0.97
2018-04-30T09:37:37.774Z,0.83
2018-04-30T09:40:05.289Z,2.00
2018-04-30T09:42:32.829Z,1.83
2018-04-30T09:45:01.106Z,0.93
2018-04-30T09:47:28.426Z,4.50
2018-04-30T09:49:56.656Z,2.40
2018-04-30T09:52:25.050Z,0.50
2018-04-30T09:54:53.358Z,0.87
2018-04-30T09:57:20.889Z,2.00
2018-04-30T09:59:49.141Z,1.17
2018-04-30T10:02:17.379Z,2.07
2018-04-30T10:04:45.877Z,0.97
2018-04-30T10:07:13.263Z,0.70
2018-04-30T10:09:40.706Z,1.90
2018-04-30T10:12:09.044Z,2.40
2018-04-30T10:14:36.447Z,0.50
2018-04-30T10:17:04.837Z,0.73
2018-04-30T10:19:33.078Z,1.43
2018-04-30T10:22:01.288Z,5.20
2018-04-30T10:24:28.642Z,0.90
2018-04-30T10:26:56.861Z,2.63
2018-04-30T10:29:24.280Z,1.03
2018-04-30T10:31:51.713Z,0.83
2018-04-30T10:34:19.898Z,15.97
2018-04-30T10:36:48.032Z,2.03
2018-04-30T10:39:15.431Z,2.00
2018-04-30T10:41:43.686Z,0.83
2018-04-30T10:44:11.897Z,2.80
2018-04-30T10:46:40.238Z,1.73
2018-04-30T10:49:07.710Z,0.60
2018-04-30T10:51:35.234Z,0.93
2018-04-30T10:54:03.261Z,2.43
2018-04-30T10:56:31.469Z,0.80
2018-04-30T10:58:58.754Z,0.87
2018-04-30T11:01:26.806Z,1.33
2018-04-30T11:03:54.907Z,0.90
2018-04-30T11:06:22.289Z,4.10
2018-04-30T11:08:50.517Z,1.17
2018-04-30T11:11:17.856Z,8.43
2018-04-30T11:13:45.162Z,2.13
2018-04-30T11:16:13.494Z,1.43
2018-04-30T11:18:40.758Z,1.27
2018-04-30T11:21:08.075Z,1.90
2018-04-30T11:23:36.130Z,1.80
2018-04-30T11:26:04.471Z,0.80
2018-04-30T11:28:32.068Z,0.93
2018-04-30T11:30:59.479Z,0.80
2018-04-30T11:33:26.843Z,0.77
2018-04-30T11:35:55.440Z,1.00
2018-04-30T11:38:23.674Z,0.67
2018-04-30T11:40:51.012Z,1.20
2018-04-30T11:43:19.311Z,0.90
2018-04-30T11:45:47.534Z,1.80
2018-04-30T11:48:14.904Z,1.87
2018-04-30T11:50:42.238Z,2.53
2018-04-30T11:53:10.509Z,2.87
2018-04-30T11:55:37.833Z,1.13
2018-04-30T11:58:06.014Z,0.90
2018-04-30T12:00:34.295Z,0.90
2018-04-30T12:03:02.391Z,5.83
2018-04-30T12:05:30.966Z,1.17
2018-04-30T12:07:58.308Z,1.77
2018-04-30T12:10:25.808Z,2.67
2018-04-30T12:12:53.235Z,1.23
2018-04-30T12:15:21.311Z,1.17
2018-04-30T12:17:48.774Z,0.70
2018-04-30T12:20:16.190Z,1.30
2018-04-30T12:22:44.464Z,1.93
2018-04-30T12:25:15.582Z,0.93
2018-04-30T12:27:42.893Z,5.60
2018-04-30T12:30:11.153Z,3.00
2018-04-30T12:32:39.242Z,2.97
2018-04-30T12:35:06.562Z,0.70
2018-04-30T12:37:34.774Z,0.70
2018-04-30T12:40:02.216Z,2.93
2018-04-30T12:42:30.266Z,2.00
2018-04-30T12:44:57.791Z,1.13
2018-04-30T12:47:25.140Z,1.47
2018-04-30T12:49:57.019Z,2.33
2018-04-30T12:52:28.562Z,0.97
2018-04-30T12:54:58.727Z,1.37
2018-04-30T12:57:27.122Z,1.00
2018-04-30T12:59:54.451Z,1.03
2018-04-30T13:02:22.755Z,1.10
2018-04-30T13:04:50.582Z,2.63
2018-04-30T13:07:17.942Z,0.97
2018-04-30T13:09:47.354Z,1.03
2018-04-30T13:12:17.461Z,1.30
2018-04-30T13:14:45.603Z,2.87
2018-04-30T13:17:14.739Z,1.60
2018-04-30T13:19:46.133Z,1.57
2018-04-30T13:22:13.465Z,5.23
2018-04-30T13:24:42.575Z,2.57
2018-04-30T13:27:10.735Z,2.00
2018-04-30T13:29:38.070Z,1.17
2018-04-30T13:32:06.265Z,0.60
2018-04-30T13:34:33.675Z,0.60
2018-04-30T13:37:01.995Z,6.40
2018-04-30T13:39:30.263Z,3.87
2018-04-30T13:42:01.372Z,2.00
2018-04-30T13:44:30.186Z,10.93
2018-04-30T13:46:58.846Z,0.70
2018-04-30T13:49:27.130Z,1.70
2018-04-30T13:51:55.478Z,1.00
2018-04-30T13:54:25.168Z,0.70
2018-04-30T13:56:52.499Z,4.63
2018-04-30T13:59:22.379Z,0.90
2018-04-30T14:01:51.736Z,0.70
2018-04-30T14:04:19.988Z,1.70
2018-04-30T14:06:47.347Z,0.83
2018-04-30T14:09:15.528Z,2.73
2018-04-30T14:11:44.279Z,2.83
2018-04-30T14:14:12.443Z,1.10
2018-04-30T14:16:43.487Z,0.97
2018-04-30T14:19:12.938Z,0.87
2018-04-30T14:21:41.552Z,0.80
2018-04-30T14:24:08.892Z,1.50
2018-04-30T14:26:38.185Z,0.70
2018-04-30T14:29:06.330Z,2.23
2018-04-30T14:31:34.800Z,1.20
2018-04-30T14:34:02.706Z,1.00
2018-04-30T14:36:31.764Z,0.80
2018-04-30T14:39:00.111Z,1.20
2018-04-30T14:41:27.455Z,3.73
2018-04-30T14:43:55.538Z,2.73
2018-04-30T14:46:23.217Z,0.80
2018-04-30T14:48:51.429Z,2.40
2018-04-30T14:51:18.863Z,2.97
2018-04-30T14:53:47.048Z,0.80
2018-04-30T14:56:14.355Z,1.33
2018-04-30T14:58:42.531Z,1.20
2018-04-30T15:01:13.410Z,2.50
2018-04-30T15:03:42.243Z,2.13
2018-04-30T15:06:10.627Z,1.27
2018-04-30T15:08:38.703Z,0.97
2018-04-30T15:11:08.955Z,0.80
2018-04-30T15:13:36.448Z,1.73
2018-04-30T15:16:05.292Z,2.67
2018-04-30T15:18:36.496Z,1.10
2018-04-30T15:21:04.726Z,0.87
2018-04-30T15:23:32.082Z,1.60
2018-04-30T15:26:01.262Z,0.80
2018-04-30T15:28:29.353Z,2.87
2018-04-30T15:30:59.155Z,0.60
2018-04-30T15:33:36.553Z,2.57
2018-04-30T15:36:05.270Z,2.93
2018-04-30T15:38:32.585Z,1.20
2018-04-30T15:41:00.711Z,2.90
2018-04-30T15:43:28.899Z,4.03
2018-04-30T15:45:58.006Z,3.07
2018-04-30T15:48:29.819Z,1.03
2018-04-30T15:51:01.367Z,1.10
2018-04-30T15:53:28.759Z,1.57
2018-04-30T15:55:56.984Z,1.00
2018-04-30T15:58:24.314Z,0.90
2018-04-30T16:00:52.691Z,1.20
2018-04-30T16:03:20.867Z,1.30
2018-04-30T16:05:48.179Z,1.67
2018-04-30T16:08:18.771Z,1.97
2018-04-30T16:10:48.009Z,0.90
2018-04-30T16:13:19.045Z,5.30
2018-04-30T16:15:46.471Z,1.00
2018-04-30T16:18:16.610Z,1.60
2018-04-30T16:20:50.366Z,0.87
2018-04-30T16:23:19.737Z,33.93
2018-04-30T16:25:47.145Z,2.87
2018-04-30T16:28:14.453Z,0.80
2018-04-30T16:30:42.753Z,1.10
2018-04-30T16:33:10.945Z,2.93
2018-04-30T16:35:38.338Z,1.10
2018-04-30T16:38:06.581Z,1.30
2018-04-30T16:40:35.070Z,1.00
2018-04-30T16:43:02.461Z,2.50
2018-04-30T16:45:29.858Z,3.13
2018-04-30T16:47:58.091Z,3.93
2018-04-30T16:50:26.271Z,8.67
2018-04-30T16:52:55.530Z,1.50
2018-04-30T16:55:22.807Z,1.50
2018-04-30T16:57:50.861Z,1.13
2018-04-30T17:00:19.852Z,1.03
2018-04-30T17:02:48.262Z,1.20
2018-04-30T17:05:16.482Z,6.47
2018-04-30T17:07:44.071Z,1.17
2018-04-30T17:10:11.354Z,1.73
2018-04-30T17:12:40.014Z,1.77
2018-04-30T17:15:07.775Z,1.03
2018-04-30T17:17:35.010Z,1.20
2018-04-30T17:20:03.489Z,16.10
2018-04-30T17:22:31.099Z,1.63
2018-04-30T17:24:59.318Z,8.23
2018-04-30T17:27:26.778Z,2.00
2018-04-30T17:29:55.236Z,4.07
2018-04-30T17:32:23.260Z,2.00
2018-04-30T17:34:50.566Z,1.93
2018-04-30T17:37:18.825Z,0.90
2018-04-30T17:39:46.142Z,5.13
2018-04-30T17:42:14.359Z,1.57
2018-04-30T17:44:41.714Z,6.53
2018-04-30T17:47:09.943Z,5.07
2018-04-30T17:49:37.576Z,2.40
2018-04-30T17:52:05.809Z,3.37
2018-04-30T17:54:34.145Z,1.30
2018-04-30T17:57:02.180Z,1.67
2018-04-30T17:59:30.222Z,2.47
2018-04-30T18:01:58.437Z,2.07
2018-04-30T18:04:25.710Z,3.10
2018-04-30T18:06:53.908Z,2.60
2018-04-30T18:09:21.218Z,1.47
2018-04-30T18:11:48.530Z,2.83
2018-04-30T18:14:16.830Z,1.80
2018-04-30T18:16:44.198Z,1.33
2018-04-30T18:19:12.247Z,2.53
2018-04-30T18:21:40.260Z,2.07
2018-04-30T18:24:07.698Z,1.93
2018-04-30T18:26:35.069Z,1.93
2018-04-30T18:29:03.449Z,1.10
2018-04-30T18:31:30.703Z,1.20
2018-04-30T18:33:58.925Z,1.43
2018-04-30T18:36:27.114Z,1.20
2018-04-30T18:38:54.367Z,1.60
2018-04-30T18:41:22.389Z,1.73
2018-04-30T18:43:50.440Z,1.27
2018-04-30T18:46:18.754Z,1.50
2018-04-30T18:48:46.078Z,1.67
2018-04-30T18:51:14.164Z,2.07
2018-04-30T18:53:42.370Z,1.20
2018-04-30T18:56:09.735Z,1.53
2018-04-30T18:58:37.750Z,18.43
2018-04-30T19:01:05.173Z,14.90
2018-04-30T19:03:33.188Z,3.70
2018-04-30T19:06:00.611Z,11.77
2018-04-30T19:08:27.929Z,7.90
2018-04-30T19:10:56.003Z,399.93
2018-04-30T19:13:24.026Z,343.50
2018-04-30T19:15:53.559Z,122.53
2018-04-30T19:18:21.802Z,7.17
2018-04-30T19:20:49.187Z,2.37
2018-04-30T19:23:16.505Z,2.60
2018-04-30T19:25:44.741Z,2.17
2018-04-30T19:28:13.130Z,4.23
2018-04-30T19:30:40.389Z,3.43
2018-04-30T19:33:07.970Z,2.63
2018-04-30T19:35:36.008Z,1.47
2018-04-30T19:38:03.473Z,4.67
2018-04-30T19:40:31.546Z,1.17
2018-04-30T19:42:59.707Z,3.97
2018-04-30T19:45:27.884Z,9.00
2018-04-30T19:47:57.035Z,2.07
2018-04-30T19:50:25.291Z,1.30
2018-04-30T19:52:53.456Z,1.10
2018-04-30T19:55:20.766Z,1.80
2018-04-30T19:57:48.120Z,1.90
2018-04-30T20:00:16.387Z,1.77
2018-04-30T20:02:44.502Z,2.07
2018-04-30T20:05:11.814Z,1.23
2018-04-30T20:07:39.902Z,1.10
2018-04-30T20:10:07.296Z,1.10
2018-04-30T20:12:35.642Z,1.10
2018-04-30T20:15:03.714Z,1.20
2018-04-30T20:17:32.040Z,0.90
2018-04-30T20:20:00.278Z,0.90
2018-04-30T20:22:28.474Z,1.83
2018-04-30T20:24:55.821Z,1.57
2018-04-30T20:27:25.226Z,0.70
2018-04-30T20:29:53.687Z,1.27
2018-04-30T20:32:24.908Z,2.00
2018-04-30T20:34:52.277Z,3.07
2018-04-30T20:37:20.611Z,1.17
2018-04-30T20:39:47.963Z,1.20
2018-04-30T20:42:16.291Z,0.90
2018-04-30T20:44:44.566Z,1.83
2018-04-30T20:47:12.103Z,1.93
2018-04-30T20:49:39.479Z,2.10
2018-04-30T20:52:11.087Z,1.53
2018-04-30T20:54:38.432Z,1.77
2018-04-30T20:57:07.412Z,2.53
2018-04-30T20:59:37.713Z,1.00
2018-04-30T21:02:05.774Z,1.33
2018-04-30T21:04:35.222Z,1.23
2018-04-30T21:07:05.403Z,1.30
2018-04-30T21:09:34.603Z,1.00
2018-04-30T21:12:02.094Z,1.60
2018-04-30T21:14:29.592Z,1.97
2018-04-30T21:16:57.623Z,1.23
2018-04-30T21:19:25.020Z,1.47
2018-04-30T21:21:53.994Z,1.50
2018-04-30T21:24:22.181Z,1.40
2018-04-30T21:26:49.930Z,1.63
2018-04-30T21:29:17.483Z,1.70
2018-04-30T21:31:45.850Z,4.13
2018-04-30T21:34:14.251Z,1.20
2018-04-30T21:36:43.631Z,1.40
2018-04-30T21:39:11.111Z,1.50
2018-04-30T21:41:39.383Z,1.23
2018-04-30T21:44:06.735Z,1.67
2018-04-30T21:46:35.793Z,1.30
2018-04-30T21:49:03.267Z,3.37
2018-04-30T21:51:31.580Z,3.47
2018-04-30T21:53:59.059Z,1.53
2018-04-30T21:56:26.515Z,2.00
2018-04-30T21:58:54.818Z,1.03
2018-04-30T22:01:23.178Z,1.73
2018-04-30T22:03:50.474Z,1.80
2018-04-30T22:06:19.681Z,1.27
2018-04-30T22:08:48.808Z,1.00
2018-04-30T22:11:17.178Z,1.13
2018-04-30T22:13:46.398Z,1.50
2018-04-30T22:16:13.752Z,1.03
2018-04-30T22:18:41.179Z,0.97
2018-04-30T22:21:12.293Z,0.93
2018-04-30T22:23:40.564Z,1.20
2018-04-30T22:26:08.343Z,0.80
2018-04-30T22:28:36.706Z,1.10
2018-04-30T22:31:05.056Z,1.07
2018-04-30T22:33:33.481Z,0.77
2018-04-30T22:36:00.977Z,0.80
2018-04-30T22:38:30.310Z,0.80
2018-04-30T22:40:59.614Z,1.50
2018-04-30T22:43:29.020Z,1.97
2018-04-30T22:45:57.293Z,0.70
2018-04-30T22:48:26.406Z,0.67
2018-04-30T22:50:53.745Z,0.80
2018-04-30T22:53:22.784Z,0.80
2018-04-30T22:55:50.255Z,0.87
2018-04-30T22:58:17.658Z,0.80
2018-04-30T23:00:46.178Z,2.67
2018-04-30T23:03:13.620Z,0.80
2018-04-30T23:05:41.083Z,0.80
2018-04-30T23:08:10.430Z,0.60
2018-04-30T23:10:38.873Z,0.80
2018-04-30T23:13:06.265Z,1.13
2018-04-30T23:15:34.560Z,1.50
2018-04-30T23:18:02.146Z,0.70
2018-04-30T23:20:30.298Z,0.80
2018-04-30T23:22:57.815Z,0.60
2018-04-30T23:25:28.135Z,1.03
2018-04-30T23:27:56.371Z,0.70
2018-04-30T23:30:24.846Z,0.80
2018-04-30T23:32:53.164Z,0.73
2018-04-30T23:35:21.632Z,0.87
2018-04-30T23:37:50.070Z,1.00
2018-04-30T23:40:19.138Z,0.80
2018-04-30T23:42:46.919Z,0.80
2018-04-30T23:45:16.990Z,0.80
2018-04-30T23:47:45.110Z,0.70
2018-04-30T23:50:12.655Z,0.67
2018-04-30T23:52:41.028Z,0.90
2018-04-30T23:55:09.198Z,0.70
2018-04-30T23:57:36.798Z,0.70
